createdAt,value
2019-03-22T00:02:09.984Z,6.90
2019-03-22T00:04:36.233Z,6.89
2019-03-22T00:07:02.442Z,7.08
2019-03-22T00:09:28.622Z,7.03
2019-03-22T00:11:54.729Z,7.01
2019-03-22T00:14:20.800Z,7.05
2019-03-22T00:16:46.886Z,7.13
2019-03-22T00:19:13.085Z,7.08
2019-03-22T00:21:39.151Z,6.66
2019-03-22T00:24:05.377Z,6.86
2019-03-22T00:26:32.660Z,7.17
2019-03-22T00:28:58.806Z,7.18
2019-03-22T00:31:25.168Z,7.18
2019-03-22T00:33:51.238Z,7.05
2019-03-22T00:36:17.345Z,7.05
2019-03-22T00:38:43.453Z,7.27
2019-03-22T00:41:09.530Z,6.96
2019-03-22T00:43:35.735Z,7.09
2019-03-22T00:46:01.813Z,6.95
2019-03-22T00:48:28.161Z,6.99
2019-03-22T00:50:54.365Z,6.97
2019-03-22T00:53:20.455Z,7.04
2019-03-22T00:55:46.607Z,7.08
2019-03-22T00:58:12.667Z,7.01
2019-03-22T01:00:38.957Z,7.11
2019-03-22T01:03:05.137Z,7.03
2019-03-22T01:05:31.364Z,6.98
2019-03-22T01:07:57.455Z,6.93
2019-03-22T01:10:23.549Z,6.96
2019-03-22T01:12:49.637Z,7.01
2019-03-22T01:15:15.932Z,6.93
2019-03-22T01:17:42.128Z,6.91
2019-03-22T01:20:09.820Z,6.74
2019-03-22T01:22:36.036Z,6.63
2019-03-22T01:25:04.340Z,6.80
2019-03-22T01:27:39.911Z,6.50
2019-03-22T01:29:58.397Z,6.47
2019-03-22T01:32:25.588Z,6.61
2019-03-22T01:34:51.675Z,6.55
2019-03-22T01:37:17.755Z,6.58
2019-03-22T01:39:43.852Z,6.57
2019-03-22T01:42:10.040Z,6.27
2019-03-22T01:44:36.236Z,6.37
2019-03-22T01:47:02.632Z,6.41
2019-03-22T01:49:28.709Z,5.98
2019-03-22T01:51:54.901Z,5.93
2019-03-22T01:54:20.973Z,5.94
2019-03-22T01:56:47.097Z,5.93
2019-03-22T01:59:13.313Z,5.85
2019-03-22T02:01:39.487Z,5.85
2019-03-22T02:04:05.704Z,5.86
2019-03-22T02:06:31.913Z,6.19
2019-03-22T02:08:58.097Z,6.12
2019-03-22T02:11:24.276Z,6.07
2019-03-22T02:13:50.383Z,6.10
2019-03-22T02:16:16.465Z,6.00
2019-03-22T02:18:42.734Z,6.00
2019-03-22T02:21:09.037Z,5.85
2019-03-22T02:23:35.212Z,5.80
2019-03-22T02:26:01.329Z,5.65
2019-03-22T02:28:27.429Z,5.58
2019-03-22T02:30:53.651Z,5.87
2019-03-22T02:33:19.819Z,5.73
2019-03-22T02:35:46.030Z,5.60
2019-03-22T02:38:12.121Z,5.85
2019-03-22T02:40:38.230Z,5.89
2019-03-22T02:43:04.413Z,5.84
2019-03-22T02:45:30.521Z,6.07
2019-03-22T02:47:56.817Z,5.99
2019-03-22T02:50:22.910Z,5.77
2019-03-22T02:52:49.078Z,5.73
2019-03-22T02:55:15.576Z,5.67
2019-03-22T02:57:41.931Z,5.67
2019-03-22T03:00:11.712Z,5.68
2019-03-22T03:02:37.913Z,5.76
2019-03-22T03:05:06.594Z,5.81
2019-03-22T03:07:32.691Z,5.84
2019-03-22T03:09:58.976Z,5.51
2019-03-22T03:12:25.094Z,5.34
2019-03-22T03:14:51.297Z,5.26
2019-03-22T03:17:17.569Z,5.21
2019-03-22T03:19:43.684Z,5.33
2019-03-22T03:22:09.799Z,5.53
2019-03-22T03:24:35.973Z,5.58
2019-03-22T03:27:02.173Z,5.52
2019-03-22T03:29:28.278Z,5.42
2019-03-22T03:31:54.443Z,5.48
2019-03-22T03:34:20.517Z,5.32
2019-03-22T03:36:46.711Z,5.45
2019-03-22T03:39:12.849Z,5.35
2019-03-22T03:41:39.036Z,5.45
2019-03-22T03:44:05.337Z,5.15
2019-03-22T03:46:32.615Z,5.49
2019-03-22T03:48:58.713Z,5.08
2019-03-22T03:51:24.853Z,4.96
2019-03-22T03:53:51.179Z,5.16
2019-03-22T03:56:17.342Z,5.23
2019-03-22T03:58:52.099Z,5.06
2019-03-22T04:01:11.426Z,5.02
2019-03-22T04:03:37.504Z,4.89
2019-03-22T04:06:03.714Z,4.80
2019-03-22T04:08:29.915Z,5.07
2019-03-22T04:10:56.051Z,5.10
2019-03-22T04:13:22.141Z,5.16
2019-03-22T04:15:48.199Z,4.84
2019-03-22T04:18:14.291Z,4.63
2019-03-22T04:20:40.350Z,4.69
2019-03-22T04:23:06.465Z,4.67
2019-03-22T04:25:32.533Z,4.73
2019-03-22T04:27:58.657Z,4.81
2019-03-22T04:30:24.704Z,4.92
2019-03-22T04:32:50.881Z,4.93
2019-03-22T04:35:16.977Z,4.79
2019-03-22T04:37:43.172Z,4.86
2019-03-22T04:40:21.275Z,4.99
2019-03-22T04:42:47.424Z,4.88
2019-03-22T04:45:13.578Z,5.00
2019-03-22T04:47:40.114Z,5.15
2019-03-22T04:50:06.835Z,4.86
2019-03-22T04:52:33.325Z,4.64
2019-03-22T04:55:00.510Z,4.62
2019-03-22T04:57:27.001Z,4.58
2019-03-22T04:59:53.875Z,4.69
2019-03-22T05:02:20.501Z,4.72
2019-03-22T05:04:47.595Z,4.67
2019-03-22T05:07:14.398Z,4.70
2019-03-22T05:09:41.195Z,4.76
2019-03-22T05:12:10.381Z,4.67
2019-03-22T05:14:39.876Z,4.89
2019-03-22T05:17:08.222Z,4.85
2019-03-22T05:19:37.189Z,4.85
2019-03-22T05:22:05.792Z,4.66
2019-03-22T05:24:34.477Z,4.68
2019-03-22T05:27:01.301Z,4.30
2019-03-22T05:29:31.167Z,4.39
2019-03-22T05:32:05.376Z,4.43
2019-03-22T05:34:31.610Z,4.23
2019-03-22T05:36:57.806Z,4.07
2019-03-22T05:39:23.906Z,4.14
2019-03-22T05:41:49.988Z,4.23
2019-03-22T05:44:16.206Z,4.35
2019-03-22T05:46:42.382Z,4.42
2019-03-22T05:49:09.591Z,4.43
2019-03-22T05:51:35.724Z,4.42
2019-03-22T05:54:01.996Z,4.38
2019-03-22T05:56:28.081Z,4.52
2019-03-22T05:58:54.293Z,4.43
2019-03-22T06:01:20.442Z,4.51
2019-03-22T06:03:46.626Z,4.66
2019-03-22T06:06:12.823Z,4.71
2019-03-22T06:08:38.901Z,4.45
2019-03-22T06:11:05.079Z,4.65
2019-03-22T06:13:31.269Z,4.96
2019-03-22T06:15:57.346Z,5.15
2019-03-22T06:18:23.482Z,5.26
2019-03-22T06:20:49.611Z,5.29
2019-03-22T06:23:15.812Z,5.35
2019-03-22T06:25:42.024Z,5.43
2019-03-22T06:28:08.112Z,5.44
2019-03-22T06:30:34.210Z,5.48
2019-03-22T06:33:00.294Z,5.43
2019-03-22T06:35:26.492Z,5.41
2019-03-22T06:37:52.590Z,5.50
2019-03-22T06:40:19.986Z,5.69
2019-03-22T06:42:46.192Z,5.88
2019-03-22T06:45:12.471Z,6.12
2019-03-22T06:47:38.651Z,6.19
2019-03-22T06:50:06.069Z,6.39
2019-03-22T06:52:32.178Z,6.60
2019-03-22T06:54:58.271Z,6.68
2019-03-22T06:57:24.370Z,6.64
2019-03-22T06:59:50.467Z,6.83
2019-03-22T07:02:16.541Z,6.70
2019-03-22T07:04:42.645Z,7.02
2019-03-22T07:07:08.740Z,7.18
2019-03-22T07:09:34.942Z,7.22
2019-03-22T07:12:01.325Z,7.18
2019-03-22T07:14:27.543Z,7.34
2019-03-22T07:16:53.814Z,7.46
2019-03-22T07:19:20.018Z,7.67
2019-03-22T07:21:46.268Z,7.97
2019-03-22T07:24:12.392Z,8.46
2019-03-22T07:26:38.465Z,9.03
2019-03-22T07:29:04.689Z,9.42
2019-03-22T07:31:30.791Z,9.79
2019-03-22T07:33:56.875Z,10.08
2019-03-22T07:36:23.096Z,9.62
2019-03-22T07:38:49.404Z,9.97
2019-03-22T07:41:15.712Z,10.29
2019-03-22T07:43:42.104Z,10.36
2019-03-22T07:46:08.536Z,10.48
2019-03-22T07:48:34.817Z,10.79
2019-03-22T07:51:01.047Z,11.19
2019-03-22T07:53:27.254Z,11.42
2019-03-22T07:55:53.598Z,11.42
2019-03-22T07:58:19.688Z,11.66
2019-03-22T08:00:45.790Z,11.86
2019-03-22T08:03:11.990Z,12.81
2019-03-22T08:05:38.094Z,12.94
2019-03-22T08:08:04.331Z,12.72
2019-03-22T08:10:30.438Z,12.45
2019-03-22T08:12:56.557Z,12.13
2019-03-22T08:15:28.254Z,12.14
2019-03-22T08:17:57.007Z,12.14
2019-03-22T08:20:22.558Z,12.73
2019-03-22T08:22:48.770Z,12.92
2019-03-22T08:25:14.902Z,13.12
2019-03-22T08:27:41.032Z,13.20
2019-03-22T08:30:07.351Z,13.50
2019-03-22T08:32:33.534Z,14.04
2019-03-22T08:34:59.751Z,14.29
2019-03-22T08:37:27.109Z,14.44
2019-03-22T08:39:55.816Z,14.55
2019-03-22T08:42:21.433Z,14.33
2019-03-22T08:44:47.642Z,14.77
2019-03-22T08:47:13.812Z,14.58
2019-03-22T08:49:40.114Z,14.55
2019-03-22T08:52:06.626Z,15.08
2019-03-22T08:54:32.811Z,15.50
2019-03-22T08:56:59.138Z,15.20
2019-03-22T08:59:25.333Z,15.35
2019-03-22T09:01:51.572Z,15.08
2019-03-22T09:04:17.779Z,15.17
2019-03-22T09:06:43.871Z,15.44
2019-03-22T09:09:09.998Z,15.60
2019-03-22T09:11:36.199Z,15.55
2019-03-22T09:14:02.531Z,16.28
2019-03-22T09:16:30.866Z,16.17
2019-03-22T09:18:56.780Z,16.14
2019-03-22T09:21:22.875Z,15.85
2019-03-22T09:23:49.079Z,15.81
2019-03-22T09:26:16.398Z,15.24
2019-03-22T09:28:42.556Z,14.74
2019-03-22T09:31:10.647Z,14.95
2019-03-22T09:33:36.872Z,15.35
2019-03-22T09:36:03.233Z,15.44
2019-03-22T09:38:29.515Z,15.86
2019-03-22T09:40:55.825Z,15.84
2019-03-22T09:43:21.931Z,15.66
2019-03-22T09:45:48.110Z,15.95
2019-03-22T09:48:14.229Z,16.12
2019-03-22T09:50:40.504Z,16.11
2019-03-22T09:53:06.570Z,15.81
2019-03-22T09:55:33.884Z,16.01
2019-03-22T09:58:00.221Z,15.94
2019-03-22T10:00:31.417Z,16.34
2019-03-22T10:02:58.051Z,15.93
2019-03-22T10:05:24.249Z,15.97
2019-03-22T10:07:50.536Z,16.38
2019-03-22T10:10:16.840Z,16.56
2019-03-22T10:12:43.219Z,16.65
2019-03-22T10:15:09.424Z,16.99
2019-03-22T10:17:35.569Z,17.08
2019-03-22T10:20:03.304Z,16.49
2019-03-22T10:22:29.382Z,16.84
2019-03-22T10:24:55.483Z,16.76
2019-03-22T10:27:21.781Z,16.93
2019-03-22T10:29:47.921Z,17.00
2019-03-22T10:32:14.090Z,17.29
2019-03-22T10:34:40.286Z,17.59
2019-03-22T10:37:06.448Z,17.33
2019-03-22T10:39:32.579Z,17.37
2019-03-22T10:41:58.641Z,17.68
2019-03-22T10:44:24.756Z,17.47
2019-03-22T10:46:50.888Z,17.37
2019-03-22T10:49:16.944Z,17.57
2019-03-22T10:51:55.801Z,17.79
2019-03-22T10:54:11.248Z,17.94
2019-03-22T10:56:37.473Z,17.74
2019-03-22T10:59:04.647Z,17.96
2019-03-22T11:01:30.973Z,18.19
2019-03-22T11:03:57.308Z,18.13
2019-03-22T11:06:26.325Z,17.37
2019-03-22T11:08:51.820Z,17.42
2019-03-22T11:11:18.019Z,17.78
2019-03-22T11:13:44.224Z,17.24
2019-03-22T11:16:10.445Z,16.99
2019-03-22T11:18:37.563Z,17.75
2019-03-22T11:21:05.359Z,18.10
2019-03-22T11:23:31.890Z,18.44
2019-03-22T11:26:04.066Z,18.53
2019-03-22T11:28:26.014Z,18.69
2019-03-22T11:30:52.358Z,18.38
2019-03-22T11:33:18.440Z,18.29
2019-03-22T11:35:44.771Z,18.53
2019-03-22T11:38:10.858Z,18.82
2019-03-22T11:40:37.210Z,18.67
2019-03-22T11:43:08.659Z,18.80
2019-03-22T11:45:31.829Z,19.06
2019-03-22T11:47:58.033Z,18.18
2019-03-22T11:50:24.417Z,18.40
2019-03-22T11:52:50.717Z,18.69
2019-03-22T11:55:17.341Z,18.96
2019-03-22T11:57:43.563Z,19.58
2019-03-22T12:00:13.764Z,18.92
2019-03-22T12:02:40.079Z,18.98
2019-03-22T12:05:08.182Z,18.97
2019-03-22T12:07:34.384Z,18.89
2019-03-22T12:10:00.543Z,19.23
2019-03-22T12:12:26.647Z,19.49
2019-03-22T12:14:52.838Z,19.41
2019-03-22T12:17:23.057Z,19.77
2019-03-22T12:19:49.248Z,19.74
2019-03-22T12:22:15.469Z,19.77
2019-03-22T12:24:41.665Z,19.35
2019-03-22T12:27:07.771Z,19.27
2019-03-22T12:29:34.377Z,19.27
2019-03-22T12:32:00.667Z,20.22
2019-03-22T12:34:26.833Z,19.47
2019-03-22T12:36:53.663Z,19.79
2019-03-22T12:39:19.880Z,20.53
2019-03-22T12:41:46.165Z,20.34
2019-03-22T12:44:12.386Z,20.51
2019-03-22T12:46:40.601Z,20.66
2019-03-22T12:49:06.747Z,20.85
2019-03-22T12:51:32.844Z,21.20
2019-03-22T12:53:59.071Z,20.87
2019-03-22T12:56:25.273Z,21.51
2019-03-22T12:58:51.595Z,21.16
2019-03-22T13:01:17.998Z,21.46
2019-03-22T13:03:45.234Z,20.88
2019-03-22T13:06:11.468Z,21.06
2019-03-22T13:08:37.654Z,21.87
2019-03-22T13:11:03.994Z,22.75
2019-03-22T13:13:30.209Z,22.37
2019-03-22T13:15:56.333Z,22.26
2019-03-22T13:18:22.539Z,21.75
2019-03-22T13:20:48.874Z,22.20
2019-03-22T13:23:15.085Z,21.89
2019-03-22T13:25:42.474Z,21.62
2019-03-22T13:28:08.583Z,22.47
2019-03-22T13:30:35.413Z,23.26
2019-03-22T13:33:01.767Z,23.55
2019-03-22T13:35:28.133Z,23.21
2019-03-22T13:37:54.454Z,22.75
2019-03-22T13:40:20.555Z,21.58
2019-03-22T13:42:46.856Z,21.96
2019-03-22T13:45:13.178Z,22.32
2019-03-22T13:47:39.377Z,21.49
2019-03-22T13:50:07.006Z,21.21
2019-03-22T13:52:33.227Z,21.62
2019-03-22T13:54:59.371Z,21.04
2019-03-22T13:57:25.449Z,20.20
2019-03-22T13:59:51.627Z,20.21
2019-03-22T14:02:17.965Z,20.39
2019-03-22T14:04:44.186Z,20.95
2019-03-22T14:07:10.519Z,21.28
2019-03-22T14:09:36.989Z,21.57
2019-03-22T14:12:03.298Z,21.75
2019-03-22T14:14:29.511Z,21.88
2019-03-22T14:16:55.731Z,22.28
2019-03-22T14:19:21.947Z,22.21
2019-03-22T14:21:48.230Z,21.68
2019-03-22T14:24:14.515Z,21.69
2019-03-22T14:26:40.762Z,22.09
2019-03-22T14:29:06.976Z,21.75
2019-03-22T14:31:33.260Z,21.04
2019-03-22T14:33:59.343Z,21.75
2019-03-22T14:36:25.460Z,21.92
2019-03-22T14:38:51.628Z,21.71
2019-03-22T14:41:17.815Z,21.58
2019-03-22T14:43:44.041Z,21.41
2019-03-22T14:46:10.335Z,21.48
2019-03-22T14:48:36.655Z,21.42
2019-03-22T14:51:02.867Z,21.30
2019-03-22T14:53:29.219Z,21.06
2019-03-22T14:55:55.341Z,21.19
2019-03-22T14:58:21.442Z,21.34
2019-03-22T15:00:47.789Z,21.77
2019-03-22T15:03:22.481Z,21.85
2019-03-22T15:05:44.155Z,21.38
2019-03-22T15:08:10.351Z,21.35
2019-03-22T15:10:36.617Z,21.18
2019-03-22T15:13:03.028Z,21.38
2019-03-22T15:15:34.085Z,21.48
2019-03-22T15:18:18.931Z,21.38
2019-03-22T15:21:03.922Z,21.43
2019-03-22T15:23:31.967Z,21.52
2019-03-22T15:26:00.174Z,21.36
2019-03-22T15:28:44.561Z,21.33
2019-03-22T15:31:29.636Z,21.52
2019-03-22T15:34:14.479Z,21.03
2019-03-22T15:37:00.446Z,21.42
2019-03-22T15:39:28.776Z,21.12
2019-03-22T15:41:55.232Z,21.36
2019-03-22T15:46:47.636Z,21.68
2019-03-22T15:49:13.766Z,21.57
2019-03-22T15:51:39.966Z,21.40
2019-03-22T15:54:06.167Z,21.16
2019-03-22T15:56:32.347Z,20.80
2019-03-22T15:58:58.715Z,20.91
2019-03-22T16:01:24.767Z,21.25
2019-03-22T16:03:50.986Z,21.40
2019-03-22T16:06:17.078Z,21.19
2019-03-22T16:08:43.163Z,20.97
2019-03-22T16:11:09.276Z,21.02
2019-03-22T16:13:35.479Z,20.81
2019-03-22T16:16:01.604Z,21.02
2019-03-22T16:18:27.815Z,21.15
2019-03-22T16:20:59.947Z,20.97
2019-03-22T16:23:22.162Z,20.98
2019-03-22T16:25:48.565Z,21.09
2019-03-22T16:28:14.777Z,21.54
2019-03-22T16:30:40.976Z,21.41
2019-03-22T16:33:07.219Z,21.40
2019-03-22T16:35:33.306Z,21.20
2019-03-22T16:37:59.553Z,21.66
2019-03-22T16:40:25.646Z,22.20
2019-03-22T16:42:51.766Z,21.33
2019-03-22T16:45:32.935Z,21.24
2019-03-22T16:47:59.149Z,21.73
2019-03-22T16:50:25.340Z,21.57
2019-03-22T16:52:52.538Z,21.09
2019-03-22T16:55:18.852Z,20.98
2019-03-22T16:57:45.143Z,21.40
2019-03-22T17:00:11.560Z,21.50
2019-03-22T17:02:37.672Z,20.85
2019-03-22T17:05:05.858Z,20.57
2019-03-22T17:07:31.989Z,20.55
2019-03-22T17:09:58.625Z,20.39
2019-03-22T17:12:24.785Z,20.14
2019-03-22T17:14:51.046Z,20.14
2019-03-22T17:17:17.216Z,19.80
2019-03-22T17:19:44.950Z,19.70
2019-03-22T17:22:11.281Z,19.68
2019-03-22T17:24:37.405Z,19.51
2019-03-22T17:27:03.714Z,19.33
2019-03-22T17:29:29.801Z,19.48
2019-03-22T17:31:56.397Z,19.40
2019-03-22T17:34:22.554Z,19.38
2019-03-22T17:36:48.785Z,19.35
2019-03-22T17:39:14.992Z,19.22
2019-03-22T17:41:41.300Z,19.10
2019-03-22T17:44:07.428Z,19.04
2019-03-22T17:46:33.659Z,19.00
2019-03-22T17:48:59.769Z,18.97
2019-03-22T17:51:26.015Z,19.00
2019-03-22T17:53:52.211Z,18.93
2019-03-22T17:56:18.448Z,18.77
2019-03-22T17:58:44.933Z,18.73
2019-03-22T18:01:11.291Z,18.64
2019-03-22T18:03:37.561Z,18.68
2019-03-22T18:06:03.891Z,18.60
2019-03-22T18:08:30.133Z,18.38
2019-03-22T18:10:56.362Z,18.36
2019-03-22T18:13:22.564Z,18.24
2019-03-22T18:15:48.708Z,18.18
2019-03-22T18:18:14.923Z,18.00
2019-03-22T18:20:41.224Z,17.90
2019-03-22T18:23:07.443Z,17.80
2019-03-22T18:25:33.559Z,17.69
2019-03-22T18:27:59.837Z,17.66
2019-03-22T18:30:26.060Z,17.60
2019-03-22T18:32:52.267Z,17.41
2019-03-22T18:35:18.466Z,17.40
2019-03-22T18:37:44.702Z,17.32
2019-03-22T18:40:12.744Z,17.32
2019-03-22T18:42:38.968Z,17.27
2019-03-22T18:45:07.298Z,17.05
2019-03-22T18:47:33.640Z,17.02
2019-03-22T18:50:00.021Z,16.91
2019-03-22T18:52:27.654Z,16.78
2019-03-22T18:54:55.986Z,16.70
2019-03-22T18:57:22.223Z,16.67
2019-03-22T18:59:48.343Z,16.58
2019-03-22T19:02:14.568Z,16.65
2019-03-22T19:04:44.421Z,16.43
2019-03-22T19:07:09.114Z,16.31
2019-03-22T19:09:35.385Z,16.26
2019-03-22T19:12:01.750Z,16.23
2019-03-22T19:14:29.102Z,16.03
2019-03-22T19:16:55.547Z,15.94
2019-03-22T19:19:22.752Z,15.83
2019-03-22T19:21:48.990Z,15.62
2019-03-22T19:24:16.140Z,15.56
2019-03-22T19:26:42.284Z,15.39
2019-03-22T19:29:08.361Z,15.41
2019-03-22T19:31:34.733Z,15.44
2019-03-22T19:34:00.951Z,15.42
2019-03-22T19:36:27.314Z,15.30
2019-03-22T19:38:53.437Z,15.26
2019-03-22T19:41:19.544Z,15.18
2019-03-22T19:43:46.925Z,15.05
2019-03-22T19:46:13.305Z,14.96
2019-03-22T19:48:39.442Z,14.91
2019-03-22T19:51:05.676Z,14.89
2019-03-22T19:53:31.935Z,14.86
2019-03-22T19:55:58.228Z,14.82
2019-03-22T19:58:24.549Z,14.80
2019-03-22T20:00:50.777Z,14.79
2019-03-22T20:03:17.105Z,14.81
2019-03-22T20:05:44.297Z,14.76
2019-03-22T20:08:13.730Z,14.71
2019-03-22T20:10:38.614Z,14.72
2019-03-22T20:13:04.906Z,14.64
2019-03-22T20:15:31.355Z,14.53
2019-03-22T20:17:57.669Z,14.58
2019-03-22T20:20:23.970Z,14.65
2019-03-22T20:22:50.098Z,14.62
2019-03-22T20:25:16.494Z,14.46
2019-03-22T20:27:42.938Z,14.38
2019-03-22T20:30:14.593Z,14.34
2019-03-22T20:32:41.038Z,14.30
2019-03-22T20:35:15.700Z,14.27
2019-03-22T20:37:35.945Z,14.22
2019-03-22T20:40:04.495Z,14.16
2019-03-22T20:42:30.813Z,14.16
2019-03-22T20:44:57.071Z,14.11
2019-03-22T20:47:23.342Z,13.98
2019-03-22T20:49:49.699Z,13.94
2019-03-22T20:52:16.061Z,13.89
2019-03-22T20:54:42.288Z,13.86
2019-03-22T20:57:08.517Z,13.81
2019-03-22T20:59:34.662Z,13.84
2019-03-22T21:02:00.878Z,13.90
2019-03-22T21:04:27.096Z,13.86
2019-03-22T21:06:53.311Z,13.86
2019-03-22T21:09:19.474Z,13.88
2019-03-22T21:11:45.725Z,13.86
2019-03-22T21:14:11.803Z,13.85
2019-03-22T21:16:38.023Z,13.78
2019-03-22T21:19:04.352Z,13.64
2019-03-22T21:21:36.364Z,13.55
2019-03-22T21:23:59.859Z,13.43
2019-03-22T21:26:26.114Z,13.35
2019-03-22T21:28:52.242Z,13.38
2019-03-22T21:31:19.588Z,13.24
2019-03-22T21:33:45.996Z,13.19
2019-03-22T21:36:12.207Z,13.19
2019-03-22T21:38:38.464Z,13.07
2019-03-22T21:41:04.782Z,12.94
2019-03-22T21:43:30.935Z,12.58
2019-03-22T21:45:57.076Z,12.52
2019-03-22T21:48:23.397Z,12.67
2019-03-22T21:50:49.649Z,12.69
2019-03-22T21:53:15.892Z,12.73
2019-03-22T21:55:42.237Z,12.70
2019-03-22T21:58:08.497Z,12.55
2019-03-22T22:00:34.733Z,12.28
2019-03-22T22:03:00.976Z,12.18
2019-03-22T22:05:27.664Z,12.25
2019-03-22T22:07:54.758Z,12.27
2019-03-22T22:10:21.055Z,12.20
2019-03-22T22:12:47.314Z,12.27
2019-03-22T22:15:13.577Z,12.17
2019-03-22T22:17:40.027Z,12.10
2019-03-22T22:20:06.698Z,12.16
2019-03-22T22:22:33.096Z,12.05
2019-03-22T22:24:59.225Z,12.01
2019-03-22T22:27:25.360Z,11.77
2019-03-22T22:29:51.616Z,11.62
2019-03-22T22:32:17.872Z,11.57
2019-03-22T22:34:44.191Z,11.55
2019-03-22T22:37:10.512Z,11.37
2019-03-22T22:39:36.809Z,11.41
2019-03-22T22:42:03.289Z,11.41
2019-03-22T22:44:29.528Z,11.40
2019-03-22T22:46:55.839Z,11.29
2019-03-22T22:49:22.595Z,11.36
2019-03-22T22:51:48.851Z,11.19
2019-03-22T22:54:15.653Z,11.11
2019-03-22T22:56:41.774Z,10.73
2019-03-22T22:59:08.475Z,10.73
2019-03-22T23:01:34.971Z,10.73
2019-03-22T23:04:01.282Z,10.86
2019-03-22T23:06:28.081Z,10.43
2019-03-22T23:08:54.346Z,10.43
2019-03-22T23:11:21.098Z,10.40
2019-03-22T23:13:47.816Z,10.43
2019-03-22T23:16:14.266Z,10.32
2019-03-22T23:18:40.592Z,10.08
2019-03-22T23:21:06.929Z,10.07
2019-03-22T23:23:33.143Z,10.02
2019-03-22T23:25:59.376Z,10.15
2019-03-22T23:28:25.701Z,10.19
2019-03-22T23:30:51.961Z,10.05
2019-03-22T23:33:18.200Z,9.74
2019-03-22T23:35:44.481Z,9.67
2019-03-22T23:38:13.391Z,9.63
2019-03-22T23:40:39.609Z,9.71
2019-03-22T23:43:05.787Z,9.32
2019-03-22T23:45:32.253Z,9.37
2019-03-22T23:47:58.680Z,9.49
2019-03-22T23:50:24.885Z,9.55
2019-03-22T23:52:51.010Z,9.51
2019-03-22T23:55:17.125Z,9.35
2019-03-22T23:57:44.726Z,9.17
